sensor_id;sensor_type;location;lat;lon;timestamp;temperature;humidity
10344;DHT22;5217;43.960;10.954;2023-03-01T00:01:46;13.50;82.40
10344;DHT22;5217;43.960;10.954;2023-03-01T00:04:16;13.50;82.50
10344;DHT22;5217;43.960;10.954;2023-03-01T00:06:45;13.50;82.60
10344;DHT22;5217;43.960;10.954;2023-03-01T00:09:14;13.50;82.80
10344;DHT22;5217;43.960;10.954;2023-03-01T00:11:43;13.50;82.80
10344;DHT22;5217;43.960;10.954;2023-03-01T00:14:12;13.50;82.80
10344;DHT22;5217;43.960;10.954;2023-03-01T00:16:42;13.40;82.80
10344;DHT22;5217;43.960;10.954;2023-03-01T00:19:14;13.40;83.00
10344;DHT22;5217;43.960;10.954;2023-03-01T00:21:44;13.40;83.00
10344;DHT22;5217;43.960;10.954;2023-03-01T00:24:13;13.40;83.20
10344;DHT22;5217;43.960;10.954;2023-03-01T00:26:41;13.40;83.40
10344;DHT22;5217;43.960;10.954;2023-03-01T00:29:10;13.40;83.70
10344;DHT22;5217;43.960;10.954;2023-03-01T00:31:38;13.40;84.20
10344;DHT22;5217;43.960;10.954;2023-03-01T00:34:06;13.30;84.10
10344;DHT22;5217;43.960;10.954;2023-03-01T00:36:36;13.40;84.20
10344;DHT22;5217;43.960;10.954;2023-03-01T00:39:10;13.30;84.30
10344;DHT22;5217;43.960;10.954;2023-03-01T00:41:39;13.30;84.50
10344;DHT22;5217;43.960;10.954;2023-03-01T00:44:08;13.30;84.60
10344;DHT22;5217;43.960;10.954;2023-03-01T00:46:36;13.30;84.90
10344;DHT22;5217;43.960;10.954;2023-03-01T00:49:05;13.30;85.00
10344;DHT22;5217;43.960;10.954;2023-03-01T00:51:33;13.30;85.30
10344;DHT22;5217;43.960;10.954;2023-03-01T00:54:02;13.30;85.80
10344;DHT22;5217;43.960;10.954;2023-03-01T00:56:32;13.30;86.20
10344;DHT22;5217;43.960;10.954;2023-03-01T00:59:01;13.30;86.60
10344;DHT22;5217;43.960;10.954;2023-03-01T01:01:30;13.30;87.10
10344;DHT22;5217;43.960;10.954;2023-03-01T01:04:01;13.20;87.20
10344;DHT22;5217;43.960;10.954;2023-03-01T01:06:31;13.20;87.20
10344;DHT22;5217;43.960;10.954;2023-03-01T01:09:00;13.20;87.20
10344;DHT22;5217;43.960;10.954;2023-03-01T01:11:29;13.20;87.10
10344;DHT22;5217;43.960;10.954;2023-03-01T01:13:59;13.20;87.30
10344;DHT22;5217;43.960;10.954;2023-03-01T01:16:29;13.10;88.10
10344;DHT22;5217;43.960;10.954;2023-03-01T01:18:57;13.10;89.60
10344;DHT22;5217;43.960;10.954;2023-03-01T01:21:26;13.10;90.30
10344;DHT22;5217;43.960;10.954;2023-03-01T01:23:56;13.10;90.60
10344;DHT22;5217;43.960;10.954;2023-03-01T01:26:27;13.10;91.00
10344;DHT22;5217;43.960;10.954;2023-03-01T01:28:56;13.00;91.20
10344;DHT22;5217;43.960;10.954;2023-03-01T01:31:26;13.00;91.60
10344;DHT22;5217;43.960;10.954;2023-03-01T01:33:56;13.00;91.60
10344;DHT22;5217;43.960;10.954;2023-03-01T01:36:24;12.90;91.60
10344;DHT22;5217;43.960;10.954;2023-03-01T01:38:52;13.00;91.80
10344;DHT22;5217;43.960;10.954;2023-03-01T01:41:23;12.90;91.90
10344;DHT22;5217;43.960;10.954;2023-03-01T01:44:13;12.90;92.00
10344;DHT22;5217;43.960;10.954;2023-03-01T01:46:45;12.90;92.00
10344;DHT22;5217;43.960;10.954;2023-03-01T01:49:23;12.80;91.90
10344;DHT22;5217;43.960;10.954;2023-03-01T01:51:57;12.80;91.90
10344;DHT22;5217;43.960;10.954;2023-03-01T01:54:31;12.80;91.90
10344;DHT22;5217;43.960;10.954;2023-03-01T01:57:04;12.80;91.90
10344;DHT22;5217;43.960;10.954;2023-03-01T01:59:34;12.80;92.00
10344;DHT22;5217;43.960;10.954;2023-03-01T02:02:04;12.80;91.90
10344;DHT22;5217;43.960;10.954;2023-03-01T02:04:33;12.80;91.90
10344;DHT22;5217;43.960;10.954;2023-03-01T02:07:06;12.70;91.80
10344;DHT22;5217;43.960;10.954;2023-03-01T02:09:37;12.80;91.70
10344;DHT22;5217;43.960;10.954;2023-03-01T02:12:05;12.80;91.70
10344;DHT22;5217;43.960;10.954;2023-03-01T02:14:34;12.70;91.50
10344;DHT22;5217;43.960;10.954;2023-03-01T02:17:03;12.70;91.50
10344;DHT22;5217;43.960;10.954;2023-03-01T02:19:42;12.70;91.40
10344;DHT22;5217;43.960;10.954;2023-03-01T02:22:18;12.70;91.20
10344;DHT22;5217;43.960;10.954;2023-03-01T02:24:54;12.70;91.00
10344;DHT22;5217;43.960;10.954;2023-03-01T02:27:33;12.70;90.90
10344;DHT22;5217;43.960;10.954;2023-03-01T02:30:08;12.70;91.00
10344;DHT22;5217;43.960;10.954;2023-03-01T02:32:40;12.70;91.00
10344;DHT22;5217;43.960;10.954;2023-03-01T02:35:12;12.70;91.10
10344;DHT22;5217;43.960;10.954;2023-03-01T02:37:42;12.70;91.00
10344;DHT22;5217;43.960;10.954;2023-03-01T02:40:12;12.70;91.00
10344;DHT22;5217;43.960;10.954;2023-03-01T02:42:49;12.70;91.10
10344;DHT22;5217;43.960;10.954;2023-03-01T02:45:19;12.70;91.30
10344;DHT22;5217;43.960;10.954;2023-03-01T02:47:48;12.70;91.50
10344;DHT22;5217;43.960;10.954;2023-03-01T02:50:26;12.70;91.60
10344;DHT22;5217;43.960;10.954;2023-03-01T02:53:08;12.70;92.00
10344;DHT22;5217;43.960;10.954;2023-03-01T02:55:39;12.60;91.60
10344;DHT22;5217;43.960;10.954;2023-03-01T02:58:08;12.60;91.60
10344;DHT22;5217;43.960;10.954;2023-03-01T03:00:39;12.60;91.70
10344;DHT22;5217;43.960;10.954;2023-03-01T03:03:13;12.60;91.70
10344;DHT22;5217;43.960;10.954;2023-03-01T03:05:42;12.60;91.80
10344;DHT22;5217;43.960;10.954;2023-03-01T03:08:10;12.60;91.90
10344;DHT22;5217;43.960;10.954;2023-03-01T03:10:40;12.60;91.80
10344;DHT22;5217;43.960;10.954;2023-03-01T03:13:11;12.50;91.60
10344;DHT22;5217;43.960;10.954;2023-03-01T03:15:41;12.60;91.60
10344;DHT22;5217;43.960;10.954;2023-03-01T03:18:12;12.50;91.30
10344;DHT22;5217;43.960;10.954;2023-03-01T03:20:43;12.50;91.40
10344;DHT22;5217;43.960;10.954;2023-03-01T03:23:11;12.50;91.40
10344;DHT22;5217;43.960;10.954;2023-03-01T03:25:40;12.50;91.30
10344;DHT22;5217;43.960;10.954;2023-03-01T03:28:08;12.50;91.60
10344;DHT22;5217;43.960;10.954;2023-03-01T03:30:41;12.50;91.60
10344;DHT22;5217;43.960;10.954;2023-03-01T03:33:11;12.50;91.70
10344;DHT22;5217;43.960;10.954;2023-03-01T03:35:42;12.60;91.70
10344;DHT22;5217;43.960;10.954;2023-03-01T03:38:12;12.50;91.70
10344;DHT22;5217;43.960;10.954;2023-03-01T03:40:45;12.50;91.70
10344;DHT22;5217;43.960;10.954;2023-03-01T03:43:16;12.50;91.80
10344;DHT22;5217;43.960;10.954;2023-03-01T03:45:46;12.50;91.80
10344;DHT22;5217;43.960;10.954;2023-03-01T03:48:15;12.40;91.90
10344;DHT22;5217;43.960;10.954;2023-03-01T03:50:48;12.40;92.20
10344;DHT22;5217;43.960;10.954;2023-03-01T03:53:18;12.40;92.30
10344;DHT22;5217;43.960;10.954;2023-03-01T03:55:46;12.40;92.30
10344;DHT22;5217;43.960;10.954;2023-03-01T03:58:16;12.40;92.50
10344;DHT22;5217;43.960;10.954;2023-03-01T04:00:50;12.40;92.60
10344;DHT22;5217;43.960;10.954;2023-03-01T04:03:19;12.40;92.60
10344;DHT22;5217;43.960;10.954;2023-03-01T04:05:49;12.40;92.60
10344;DHT22;5217;43.960;10.954;2023-03-01T04:08:18;12.40;92.70
10344;DHT22;5217;43.960;10.954;2023-03-01T04:10:49;12.40;92.70
10344;DHT22;5217;43.960;10.954;2023-03-01T04:13:20;12.40;92.60
10344;DHT22;5217;43.960;10.954;2023-03-01T04:15:50;12.40;92.30
10344;DHT22;5217;43.960;10.954;2023-03-01T04:18:20;12.40;92.30
10344;DHT22;5217;43.960;10.954;2023-03-01T04:20:49;12.40;92.30
10344;DHT22;5217;43.960;10.954;2023-03-01T04:23:22;12.40;92.50
10344;DHT22;5217;43.960;10.954;2023-03-01T04:25:51;12.40;92.50
10344;DHT22;5217;43.960;10.954;2023-03-01T04:28:23;12.40;92.60
10344;DHT22;5217;43.960;10.954;2023-03-01T04:30:55;12.40;92.30
10344;DHT22;5217;43.960;10.954;2023-03-01T04:33:25;12.40;92.30
10344;DHT22;5217;43.960;10.954;2023-03-01T04:35:53;12.40;92.30
10344;DHT22;5217;43.960;10.954;2023-03-01T04:38:22;12.40;92.20
10344;DHT22;5217;43.960;10.954;2023-03-01T04:40:50;12.40;92.20
10344;DHT22;5217;43.960;10.954;2023-03-01T04:43:18;12.40;92.00
10344;DHT22;5217;43.960;10.954;2023-03-01T04:45:47;12.40;92.00
10344;DHT22;5217;43.960;10.954;2023-03-01T04:48:16;12.40;91.70
10344;DHT22;5217;43.960;10.954;2023-03-01T04:50:44;12.40;91.50
10344;DHT22;5217;43.960;10.954;2023-03-01T04:53:13;12.40;91.40
10344;DHT22;5217;43.960;10.954;2023-03-01T04:55:41;12.50;91.40
10344;DHT22;5217;43.960;10.954;2023-03-01T04:58:09;12.50;91.20
10344;DHT22;5217;43.960;10.954;2023-03-01T05:00:38;12.50;91.20
10344;DHT22;5217;43.960;10.954;2023-03-01T05:03:08;12.50;91.10
10344;DHT22;5217;43.960;10.954;2023-03-01T05:05:38;12.50;91.00
10344;DHT22;5217;43.960;10.954;2023-03-01T05:08:08;12.50;90.90
10344;DHT22;5217;43.960;10.954;2023-03-01T05:10:45;12.50;90.80
10344;DHT22;5217;43.960;10.954;2023-03-01T05:13:14;12.50;90.60
10344;DHT22;5217;43.960;10.954;2023-03-01T05:15:48;12.60;90.60
10344;DHT22;5217;43.960;10.954;2023-03-01T05:18:17;12.60;90.30
10344;DHT22;5217;43.960;10.954;2023-03-01T05:20:47;12.60;90.20
10344;DHT22;5217;43.960;10.954;2023-03-01T05:23:15;12.60;90.10
10344;DHT22;5217;43.960;10.954;2023-03-01T05:25:43;12.60;90.20
10344;DHT22;5217;43.960;10.954;2023-03-01T05:28:12;12.60;90.00
10344;DHT22;5217;43.960;10.954;2023-03-01T05:30:41;12.60;90.00
10344;DHT22;5217;43.960;10.954;2023-03-01T05:33:09;12.60;90.10
10344;DHT22;5217;43.960;10.954;2023-03-01T05:35:41;12.60;90.10
10344;DHT22;5217;43.960;10.954;2023-03-01T05:38:12;12.60;90.20
10344;DHT22;5217;43.960;10.954;2023-03-01T05:40:41;12.60;90.20
10344;DHT22;5217;43.960;10.954;2023-03-01T05:43:11;12.60;90.00
10344;DHT22;5217;43.960;10.954;2023-03-01T05:45:40;12.60;90.00
10344;DHT22;5217;43.960;10.954;2023-03-01T05:48:10;12.60;89.40
10344;DHT22;5217;43.960;10.954;2023-03-01T05:50:40;12.70;89.50
10344;DHT22;5217;43.960;10.954;2023-03-01T05:53:12;12.60;89.10
10344;DHT22;5217;43.960;10.954;2023-03-01T05:55:42;12.60;89.00
10344;DHT22;5217;43.960;10.954;2023-03-01T05:58:12;12.60;88.50
10344;DHT22;5217;43.960;10.954;2023-03-01T06:00:42;12.60;88.70
10344;DHT22;5217;43.960;10.954;2023-03-01T06:03:12;12.60;88.70
10344;DHT22;5217;43.960;10.954;2023-03-01T06:05:41;12.60;88.60
10344;DHT22;5217;43.960;10.954;2023-03-01T06:08:11;12.60;88.30
10344;DHT22;5217;43.960;10.954;2023-03-01T06:10:40;12.60;88.00
10344;DHT22;5217;43.960;10.954;2023-03-01T06:13:09;12.60;88.20
10344;DHT22;5217;43.960;10.954;2023-03-01T06:15:37;12.70;88.50
10344;DHT22;5217;43.960;10.954;2023-03-01T06:18:05;12.70;88.40
10344;DHT22;5217;43.960;10.954;2023-03-01T06:20:34;12.70;88.60
10344;DHT22;5217;43.960;10.954;2023-03-01T06:23:02;12.70;89.30
10344;DHT22;5217;43.960;10.954;2023-03-01T06:25:32;12.70;89.60
10344;DHT22;5217;43.960;10.954;2023-03-01T06:28:01;12.70;90.20
10344;DHT22;5217;43.960;10.954;2023-03-01T06:30:29;12.70;90.60
10344;DHT22;5217;43.960;10.954;2023-03-01T06:32:57;12.70;90.70
10344;DHT22;5217;43.960;10.954;2023-03-01T06:35:28;12.70;90.70
10344;DHT22;5217;43.960;10.954;2023-03-01T06:37:59;12.70;90.70
10344;DHT22;5217;43.960;10.954;2023-03-01T06:40:28;12.70;90.70
10344;DHT22;5217;43.960;10.954;2023-03-01T06:42:59;12.70;90.60
10344;DHT22;5217;43.960;10.954;2023-03-01T06:45:27;12.70;90.50
10344;DHT22;5217;43.960;10.954;2023-03-01T06:48:02;12.70;90.50
10344;DHT22;5217;43.960;10.954;2023-03-01T06:50:31;12.70;90.50
10344;DHT22;5217;43.960;10.954;2023-03-01T06:52:59;12.70;90.90
10344;DHT22;5217;43.960;10.954;2023-03-01T06:55:28;12.70;90.90
10344;DHT22;5217;43.960;10.954;2023-03-01T06:57:59;12.60;90.60
10344;DHT22;5217;43.960;10.954;2023-03-01T07:00:28;12.60;90.40
10344;DHT22;5217;43.960;10.954;2023-03-01T07:03:00;12.60;90.30
10344;DHT22;5217;43.960;10.954;2023-03-01T07:05:30;12.60;90.80
10344;DHT22;5217;43.960;10.954;2023-03-01T07:07:58;12.60;90.90
10344;DHT22;5217;43.960;10.954;2023-03-01T07:10:26;12.60;90.80
10344;DHT22;5217;43.960;10.954;2023-03-01T07:12:56;12.60;90.60
10344;DHT22;5217;43.960;10.954;2023-03-01T07:15:27;12.70;90.20
10344;DHT22;5217;43.960;10.954;2023-03-01T07:17:56;12.70;90.30
10344;DHT22;5217;43.960;10.954;2023-03-01T07:20:25;12.70;90.30
10344;DHT22;5217;43.960;10.954;2023-03-01T07:22:53;12.70;90.60
10344;DHT22;5217;43.960;10.954;2023-03-01T07:25:23;12.70;90.80
10344;DHT22;5217;43.960;10.954;2023-03-01T07:27:51;12.70;91.10
10344;DHT22;5217;43.960;10.954;2023-03-01T07:30:21;12.70;91.30
10344;DHT22;5217;43.960;10.954;2023-03-01T07:32:54;12.70;91.50
10344;DHT22;5217;43.960;10.954;2023-03-01T07:35:24;12.70;91.90
10344;DHT22;5217;43.960;10.954;2023-03-01T07:37:53;12.70;92.20
10344;DHT22;5217;43.960;10.954;2023-03-01T07:40:21;12.70;92.50
10344;DHT22;5217;43.960;10.954;2023-03-01T07:42:54;12.70;92.40
10344;DHT22;5217;43.960;10.954;2023-03-01T07:45:22;12.70;92.40
10344;DHT22;5217;43.960;10.954;2023-03-01T07:47:53;12.70;92.40
10344;DHT22;5217;43.960;10.954;2023-03-01T07:50:22;12.60;92.30
10344;DHT22;5217;43.960;10.954;2023-03-01T07:52:51;12.60;92.30
10344;DHT22;5217;43.960;10.954;2023-03-01T07:55:19;12.50;92.10
10344;DHT22;5217;43.960;10.954;2023-03-01T07:57:48;12.60;92.10
10344;DHT22;5217;43.960;10.954;2023-03-01T08:00:17;12.50;92.10
10344;DHT22;5217;43.960;10.954;2023-03-01T08:02:45;12.50;92.10
10344;DHT22;5217;43.960;10.954;2023-03-01T08:05:15;12.60;92.10
10344;DHT22;5217;43.960;10.954;2023-03-01T08:07:44;12.50;92.30
10344;DHT22;5217;43.960;10.954;2023-03-01T08:10:12;12.60;92.70
10344;DHT22;5217;43.960;10.954;2023-03-01T08:12:41;12.60;93.20
10344;DHT22;5217;43.960;10.954;2023-03-01T08:15:10;12.60;93.50
10344;DHT22;5217;43.960;10.954;2023-03-01T08:17:38;12.60;93.70
10344;DHT22;5217;43.960;10.954;2023-03-01T08:20:07;12.60;93.50
10344;DHT22;5217;43.960;10.954;2023-03-01T08:22:40;12.60;93.70
10344;DHT22;5217;43.960;10.954;2023-03-01T08:25:09;12.60;93.70
10344;DHT22;5217;43.960;10.954;2023-03-01T08:27:37;12.60;94.10
10344;DHT22;5217;43.960;10.954;2023-03-01T08:30:07;12.60;94.10
10344;DHT22;5217;43.960;10.954;2023-03-01T08:32:37;12.60;94.20
10344;DHT22;5217;43.960;10.954;2023-03-01T08:35:06;12.50;94.40
10344;DHT22;5217;43.960;10.954;2023-03-01T08:37:35;12.50;94.50
10344;DHT22;5217;43.960;10.954;2023-03-01T08:40:06;12.50;94.80
10344;DHT22;5217;43.960;10.954;2023-03-01T08:42:37;12.50;95.00
10344;DHT22;5217;43.960;10.954;2023-03-01T08:45:06;12.50;95.20
10344;DHT22;5217;43.960;10.954;2023-03-01T08:47:35;12.50;95.40
10344;DHT22;5217;43.960;10.954;2023-03-01T08:50:04;12.50;95.50
10344;DHT22;5217;43.960;10.954;2023-03-01T08:52:33;12.60;95.70
10344;DHT22;5217;43.960;10.954;2023-03-01T08:55:01;12.60;95.90
10344;DHT22;5217;43.960;10.954;2023-03-01T08:57:31;12.60;96.10
10344;DHT22;5217;43.960;10.954;2023-03-01T09:00:00;12.60;96.30
10344;DHT22;5217;43.960;10.954;2023-03-01T09:02:28;12.60;96.30
10344;DHT22;5217;43.960;10.954;2023-03-01T09:04:56;12.60;96.50
10344;DHT22;5217;43.960;10.954;2023-03-01T09:07:26;12.60;96.50
10344;DHT22;5217;43.960;10.954;2023-03-01T09:09:55;12.60;96.30
10344;DHT22;5217;43.960;10.954;2023-03-01T09:12:24;12.60;96.00
10344;DHT22;5217;43.960;10.954;2023-03-01T09:14:54;12.60;95.80
10344;DHT22;5217;43.960;10.954;2023-03-01T09:17:22;12.60;95.90
10344;DHT22;5217;43.960;10.954;2023-03-01T09:19:50;12.60;95.90
10344;DHT22;5217;43.960;10.954;2023-03-01T09:22:19;12.60;95.80
10344;DHT22;5217;43.960;10.954;2023-03-01T09:24:47;12.60;95.80
10344;DHT22;5217;43.960;10.954;2023-03-01T09:27:15;12.60;95.70
10344;DHT22;5217;43.960;10.954;2023-03-01T09:29:45;12.60;95.90
10344;DHT22;5217;43.960;10.954;2023-03-01T09:32:15;12.60;95.80
10344;DHT22;5217;43.960;10.954;2023-03-01T09:34:43;12.60;95.90
10344;DHT22;5217;43.960;10.954;2023-03-01T09:37:32;12.60;96.10
10344;DHT22;5217;43.960;10.954;2023-03-01T09:40:01;12.70;96.20
10344;DHT22;5217;43.960;10.954;2023-03-01T09:42:33;12.60;96.30
10344;DHT22;5217;43.960;10.954;2023-03-01T09:45:05;12.60;96.40
10344;DHT22;5217;43.960;10.954;2023-03-01T09:47:36;12.70;96.70
10344;DHT22;5217;43.960;10.954;2023-03-01T09:50:09;12.70;96.70
10344;DHT22;5217;43.960;10.954;2023-03-01T09:52:41;12.70;96.80
10344;DHT22;5217;43.960;10.954;2023-03-01T09:55:12;12.70;96.70
10344;DHT22;5217;43.960;10.954;2023-03-01T09:57:47;12.70;96.40
10344;DHT22;5217;43.960;10.954;2023-03-01T10:00:29;12.70;95.60
10344;DHT22;5217;43.960;10.954;2023-03-01T10:03:07;12.70;95.20
10344;DHT22;5217;43.960;10.954;2023-03-01T10:05:44;12.70;94.80
10344;DHT22;5217;43.960;10.954;2023-03-01T10:08:28;12.60;94.60
10344;DHT22;5217;43.960;10.954;2023-03-01T10:10:58;12.60;94.90
10344;DHT22;5217;43.960;10.954;2023-03-01T10:13:33;12.70;95.00
10344;DHT22;5217;43.960;10.954;2023-03-01T10:16:09;12.70;94.70
10344;DHT22;5217;43.960;10.954;2023-03-01T10:18:40;12.70;94.60
10344;DHT22;5217;43.960;10.954;2023-03-01T10:21:14;12.70;94.80
10344;DHT22;5217;43.960;10.954;2023-03-01T10:23:44;12.70;94.80
10344;DHT22;5217;43.960;10.954;2023-03-01T10:26:33;12.70;94.70
10344;DHT22;5217;43.960;10.954;2023-03-01T10:29:05;12.70;94.70
10344;DHT22;5217;43.960;10.954;2023-03-01T10:31:43;12.70;94.30
10344;DHT22;5217;43.960;10.954;2023-03-01T10:34:16;12.70;93.80
10344;DHT22;5217;43.960;10.954;2023-03-01T10:36:47;12.70;93.70
10344;DHT22;5217;43.960;10.954;2023-03-01T10:39:18;12.70;94.00
10344;DHT22;5217;43.960;10.954;2023-03-01T10:41:59;12.70;94.50
10344;DHT22;5217;43.960;10.954;2023-03-01T10:44:45;12.70;95.00
10344;DHT22;5217;43.960;10.954;2023-03-01T10:47:17;12.70;95.20
10344;DHT22;5217;43.960;10.954;2023-03-01T10:49:57;12.60;95.00
10344;DHT22;5217;43.960;10.954;2023-03-01T10:52:32;12.60;95.50
10344;DHT22;5217;43.960;10.954;2023-03-01T10:55:04;12.60;95.60
10344;DHT22;5217;43.960;10.954;2023-03-01T10:57:47;12.60;95.70
10344;DHT22;5217;43.960;10.954;2023-03-01T11:00:23;12.60;95.60
10344;DHT22;5217;43.960;10.954;2023-03-01T11:03:10;12.60;95.20
10344;DHT22;5217;43.960;10.954;2023-03-01T11:05:57;12.50;95.10
10344;DHT22;5217;43.960;10.954;2023-03-01T11:08:38;12.50;94.80
10344;DHT22;5217;43.960;10.954;2023-03-01T11:11:23;12.50;94.50
10344;DHT22;5217;43.960;10.954;2023-03-01T11:13:55;12.50;94.60
10344;DHT22;5217;43.960;10.954;2023-03-01T11:16:33;12.50;94.70
10344;DHT22;5217;43.960;10.954;2023-03-01T11:19:15;12.40;94.70
10344;DHT22;5217;43.960;10.954;2023-03-01T11:21:52;12.40;94.70
10344;DHT22;5217;43.960;10.954;2023-03-01T11:24:28;12.40;94.90
10344;DHT22;5217;43.960;10.954;2023-03-01T11:27:03;12.30;94.90
10344;DHT22;5217;43.960;10.954;2023-03-01T11:29:36;12.30;94.90
10344;DHT22;5217;43.960;10.954;2023-03-01T11:32:15;12.30;94.40
10344;DHT22;5217;43.960;10.954;2023-03-01T11:34:47;12.30;94.50
10344;DHT22;5217;43.960;10.954;2023-03-01T11:37:24;12.30;94.60
10344;DHT22;5217;43.960;10.954;2023-03-01T11:40:03;12.30;94.90
10344;DHT22;5217;43.960;10.954;2023-03-01T11:42:44;12.30;95.40
10344;DHT22;5217;43.960;10.954;2023-03-01T11:45:14;12.40;95.60
10344;DHT22;5217;43.960;10.954;2023-03-01T11:47:55;12.30;95.70
10344;DHT22;5217;43.960;10.954;2023-03-01T11:50:32;12.40;95.90
10344;DHT22;5217;43.960;10.954;2023-03-01T11:53:31;12.40;96.00
10344;DHT22;5217;43.960;10.954;2023-03-01T11:56:13;12.30;96.10
10344;DHT22;5217;43.960;10.954;2023-03-01T11:59:06;12.30;96.20
10344;DHT22;5217;43.960;10.954;2023-03-01T12:01:51;12.30;96.30
10344;DHT22;5217;43.960;10.954;2023-03-01T12:04:45;12.30;96.20
10344;DHT22;5217;43.960;10.954;2023-03-01T12:07:21;12.30;96.00
10344;DHT22;5217;43.960;10.954;2023-03-01T12:10:21;12.30;95.60
10344;DHT22;5217;43.960;10.954;2023-03-01T12:13:13;12.20;95.60
10344;DHT22;5217;43.960;10.954;2023-03-01T12:19:00;12.20;95.50
10344;DHT22;5217;43.960;10.954;2023-03-01T12:21:53;12.10;95.50
10344;DHT22;5217;43.960;10.954;2023-03-01T12:24:58;12.10;95.50
10344;DHT22;5217;43.960;10.954;2023-03-01T12:27:51;12.10;95.70
10344;DHT22;5217;43.960;10.954;2023-03-01T12:30:35;12.10;96.00
10344;DHT22;5217;43.960;10.954;2023-03-01T12:33:17;12.10;95.70
10344;DHT22;5217;43.960;10.954;2023-03-01T12:36:10;12.10;95.90
10344;DHT22;5217;43.960;10.954;2023-03-01T12:38:42;12.10;96.00
10344;DHT22;5217;43.960;10.954;2023-03-01T12:41:42;12.00;95.90
10344;DHT22;5217;43.960;10.954;2023-03-01T12:44:24;12.10;96.10
10344;DHT22;5217;43.960;10.954;2023-03-01T12:47:07;12.00;96.10
10344;DHT22;5217;43.960;10.954;2023-03-01T12:49:41;12.10;96.30
10344;DHT22;5217;43.960;10.954;2023-03-01T12:52:14;12.10;96.30
10344;DHT22;5217;43.960;10.954;2023-03-01T12:54:43;12.00;96.40
10344;DHT22;5217;43.960;10.954;2023-03-01T12:57:17;12.00;96.70
10344;DHT22;5217;43.960;10.954;2023-03-01T12:59:57;12.00;96.40
10344;DHT22;5217;43.960;10.954;2023-03-01T13:02:34;12.00;96.40
10344;DHT22;5217;43.960;10.954;2023-03-01T13:05:20;12.00;96.40
10344;DHT22;5217;43.960;10.954;2023-03-01T13:07:57;12.00;96.60
10344;DHT22;5217;43.960;10.954;2023-03-01T13:10:31;12.00;96.60
10344;DHT22;5217;43.960;10.954;2023-03-01T13:13:08;11.90;96.50
10344;DHT22;5217;43.960;10.954;2023-03-01T13:15:41;11.90;96.40
10344;DHT22;5217;43.960;10.954;2023-03-01T13:18:29;11.90;96.40
10344;DHT22;5217;43.960;10.954;2023-03-01T13:21:00;11.80;96.50
10344;DHT22;5217;43.960;10.954;2023-03-01T13:23:32;11.80;96.40
10344;DHT22;5217;43.960;10.954;2023-03-01T13:26:13;11.80;96.30
10344;DHT22;5217;43.960;10.954;2023-03-01T13:28:48;11.80;96.40
10344;DHT22;5217;43.960;10.954;2023-03-01T13:34:48;11.70;96.30
10344;DHT22;5217;43.960;10.954;2023-03-01T13:37:32;11.70;96.30
10344;DHT22;5217;43.960;10.954;2023-03-01T13:42:51;11.60;96.00
10344;DHT22;5217;43.960;10.954;2023-03-01T13:45:36;11.60;96.10
10344;DHT22;5217;43.960;10.954;2023-03-01T13:48:11;11.70;96.30
10344;DHT22;5217;43.960;10.954;2023-03-01T13:50:48;11.70;96.30
10344;DHT22;5217;43.960;10.954;2023-03-01T13:53:19;11.60;96.20
10344;DHT22;5217;43.960;10.954;2023-03-01T13:55:50;11.70;96.00
10344;DHT22;5217;43.960;10.954;2023-03-01T13:58:23;11.80;96.10
10344;DHT22;5217;43.960;10.954;2023-03-01T14:00:57;11.80;96.20
10344;DHT22;5217;43.960;10.954;2023-03-01T14:03:27;11.80;96.30
10344;DHT22;5217;43.960;10.954;2023-03-01T14:06:07;11.90;96.40
10344;DHT22;5217;43.960;10.954;2023-03-01T14:08:43;11.90;96.40
10344;DHT22;5217;43.960;10.954;2023-03-01T14:14:38;12.00;96.90
10344;DHT22;5217;43.960;10.954;2023-03-01T14:20:02;12.00;97.10
10344;DHT22;5217;43.960;10.954;2023-03-01T14:22:34;12.00;97.00
10344;DHT22;5217;43.960;10.954;2023-03-01T14:25:06;12.00;96.90
10344;DHT22;5217;43.960;10.954;2023-03-01T14:27:51;12.00;97.00
10344;DHT22;5217;43.960;10.954;2023-03-01T14:30:24;12.00;97.20
10344;DHT22;5217;43.960;10.954;2023-03-01T14:32:54;12.00;97.00
10344;DHT22;5217;43.960;10.954;2023-03-01T14:35:25;12.00;96.90
10344;DHT22;5217;43.960;10.954;2023-03-01T14:37:55;12.00;97.20
10344;DHT22;5217;43.960;10.954;2023-03-01T14:40:26;12.10;97.10
10344;DHT22;5217;43.960;10.954;2023-03-01T14:42:57;12.20;96.80
10344;DHT22;5217;43.960;10.954;2023-03-01T14:45:28;12.20;96.90
10344;DHT22;5217;43.960;10.954;2023-03-01T14:48:00;12.30;96.90
10344;DHT22;5217;43.960;10.954;2023-03-01T14:50:31;12.40;97.10
10344;DHT22;5217;43.960;10.954;2023-03-01T14:53:02;12.50;97.30
10344;DHT22;5217;43.960;10.954;2023-03-01T14:55:33;12.60;97.60
10344;DHT22;5217;43.960;10.954;2023-03-01T14:58:04;12.70;97.90
10344;DHT22;5217;43.960;10.954;2023-03-01T15:00:33;12.70;98.20
10344;DHT22;5217;43.960;10.954;2023-03-01T15:03:07;12.80;97.90
10344;DHT22;5217;43.960;10.954;2023-03-01T15:05:41;12.80;96.80
10344;DHT22;5217;43.960;10.954;2023-03-01T15:08:18;12.80;95.80
10344;DHT22;5217;43.960;10.954;2023-03-01T15:10:58;12.80;95.50
10344;DHT22;5217;43.960;10.954;2023-03-01T15:13:30;12.80;96.10
10344;DHT22;5217;43.960;10.954;2023-03-01T15:16:07;12.80;96.50
10344;DHT22;5217;43.960;10.954;2023-03-01T15:18:37;12.80;96.70
10344;DHT22;5217;43.960;10.954;2023-03-01T15:21:16;12.80;96.90
10344;DHT22;5217;43.960;10.954;2023-03-01T15:23:50;12.80;97.30
10344;DHT22;5217;43.960;10.954;2023-03-01T15:26:25;12.70;97.00
10344;DHT22;5217;43.960;10.954;2023-03-01T15:28:58;12.70;96.30
10344;DHT22;5217;43.960;10.954;2023-03-01T15:31:29;12.70;96.50
10344;DHT22;5217;43.960;10.954;2023-03-01T15:34:10;12.70;96.80
10344;DHT22;5217;43.960;10.954;2023-03-01T15:36:42;12.60;96.80
10344;DHT22;5217;43.960;10.954;2023-03-01T15:39:31;12.60;96.90
10344;DHT22;5217;43.960;10.954;2023-03-01T15:42:06;12.50;97.00
10344;DHT22;5217;43.960;10.954;2023-03-01T15:44:36;12.50;97.00
10344;DHT22;5217;43.960;10.954;2023-03-01T15:47:26;12.40;97.00
10344;DHT22;5217;43.960;10.954;2023-03-01T15:49:56;12.40;97.10
10344;DHT22;5217;43.960;10.954;2023-03-01T15:52:27;12.50;97.40
10344;DHT22;5217;43.960;10.954;2023-03-01T15:55:01;12.40;97.30
10344;DHT22;5217;43.960;10.954;2023-03-01T15:57:31;12.40;97.20
10344;DHT22;5217;43.960;10.954;2023-03-01T15:59:59;12.40;97.20
10344;DHT22;5217;43.960;10.954;2023-03-01T16:02:28;12.40;97.40
10344;DHT22;5217;43.960;10.954;2023-03-01T16:04:56;12.40;97.40
10344;DHT22;5217;43.960;10.954;2023-03-01T16:07:25;12.40;97.40
10344;DHT22;5217;43.960;10.954;2023-03-01T16:09:54;12.40;97.50
10344;DHT22;5217;43.960;10.954;2023-03-01T16:12:24;12.40;97.50
10344;DHT22;5217;43.960;10.954;2023-03-01T16:14:52;12.30;97.00
10344;DHT22;5217;43.960;10.954;2023-03-01T16:17:21;12.30;97.00
10344;DHT22;5217;43.960;10.954;2023-03-01T16:19:49;12.40;96.90